Time;durP1;ratioP1;P1;durP2;ratioP2;P2;SDS_P1;SDS_P2;PMS_P1;PMS_P2;Temp;Humidity;BMP_temperature;BMP_pressure;BME280_temperature;BME280_humidity;BME280_pressure;Samples;Min_cycle;Max_cycle;Signal;HPM_P1;HPM_P2
2022/05/30 00:00:50;;;;;;;5.13;1.75;;;7.40;99.90;;;;;;5033660;28;20080;-70
2022/05/30 00:03:17;;;;;;;9.15;2.60;;;7.40;99.90;;;;;;5034000;28;20108;-70
2022/05/30 00:05:49;;;;;;;7.00;2.25;;;7.40;99.90;;;;;;5033690;28;20121;-70
2022/05/30 00:08:16;;;;;;;10.75;2.60;;;7.50;99.90;;;;;;5033791;28;20032;-70
2022/05/30 00:10:43;;;;;;;12.57;2.50;;;7.50;99.90;;;;;;5034035;28;20072;-70
2022/05/30 00:13:09;;;;;;;9.30;2.60;;;7.60;99.90;;;;;;5033826;28;20040;-70
2022/05/30 00:15:36;;;;;;;18.58;3.10;;;7.60;99.90;;;;;;5033845;28;20116;-70
2022/05/30 00:18:01;;;;;;;8.48;2.67;;;7.70;99.90;;;;;;5033772;28;20021;-71
2022/05/30 00:20:27;;;;;;;10.13;2.90;;;7.70;99.90;;;;;;5033672;28;20025;-71
2022/05/30 00:22:52;;;;;;;10.02;2.50;;;7.70;99.90;;;;;;5033830;28;20470;-70
2022/05/30 00:25:19;;;;;;;6.78;2.67;;;7.80;99.90;;;;;;5033306;28;20021;-71
2022/05/30 00:27:45;;;;;;;17.27;4.18;;;7.80;99.90;;;;;;5033747;28;20036;-71
2022/05/30 00:30:13;;;;;;;15.60;4.18;;;7.90;99.90;;;;;;5033386;28;20018;-71
2022/05/30 00:32:38;;;;;;;13.00;2.58;;;7.90;99.90;;;;;;5033495;28;20029;-71
2022/05/30 00:35:05;;;;;;;14.43;3.40;;;8.00;99.90;;;;;;5033290;28;20025;-71
2022/05/30 00:37:31;;;;;;;8.07;2.40;;;8.00;99.90;;;;;;5033246;28;20109;-71
2022/05/30 00:39:56;;;;;;;9.07;2.70;;;8.00;99.90;;;;;;5033898;28;20505;-71
2022/05/30 00:42:24;;;;;;;14.38;3.67;;;8.10;99.90;;;;;;5033487;28;20060;-71
2022/05/30 00:44:50;;;;;;;8.55;2.80;;;8.20;99.90;;;;;;5033518;28;20083;-71
2022/05/30 00:47:17;;;;;;;7.18;2.65;;;8.20;99.90;;;;;;5033917;28;20033;-71
2022/05/30 00:49:45;;;;;;;13.93;3.35;;;8.20;99.90;;;;;;5035687;28;20071;-71
2022/05/30 00:52:24;;;;;;;14.60;2.88;;;8.20;99.90;;;;;;5036864;28;20473;-71
2022/05/30 00:55:03;;;;;;;14.77;3.17;;;8.30;99.90;;;;;;5036888;28;20029;-71
2022/05/30 00:57:31;;;;;;;13.30;3.03;;;8.30;99.90;;;;;;5036785;28;20083;-71
2022/05/30 01:00:13;;;;;;;9.52;3.45;;;8.40;99.90;;;;;;5037003;28;20564;-71
2022/05/30 01:02:40;;;;;;;9.38;2.38;;;8.40;99.90;;;;;;5036709;28;20435;-71
2022/05/30 01:07:58;;;;;;;3.10;2.33;;;8.40;99.90;;;;;;5037128;28;20116;-71
2022/05/30 01:10:24;;;;;;;10.48;3.65;;;8.40;99.90;;;;;;5036634;28;20032;-71
2022/05/30 01:12:55;;;;;;;11.20;3.00;;;8.40;99.90;;;;;;5037064;28;20025;-71
2022/05/30 01:15:23;;;;;;;15.18;3.47;;;8.50;99.90;;;;;;5036318;28;20097;-70
2022/05/30 01:18:13;;;;;;;14.93;3.35;;;8.50;99.90;;;;;;5036519;28;20108;-71
2022/05/30 01:20:44;;;;;;;7.53;2.40;;;8.50;99.90;;;;;;5036544;28;20036;-70
2022/05/30 01:23:22;;;;;;;9.85;3.60;;;8.50;99.90;;;;;;5036232;28;20033;-71
2022/05/30 01:26:11;;;;;;;11.10;2.67;;;8.50;99.90;;;;;;5036485;28;20104;-71
2022/05/30 01:28:56;;;;;;;17.90;3.65;;;8.50;99.90;;;;;;5036279;28;20064;-71
2022/05/30 01:31:23;;;;;;;14.07;3.95;;;8.50;99.90;;;;;;5036575;28;20053;-71
2022/05/30 01:33:48;;;;;;;11.98;3.25;;;8.40;99.90;;;;;;5036054;28;20056;-71
2022/05/30 01:36:14;;;;;;;13.07;3.47;;;8.50;99.90;;;;;;5036292;28;20527;-71
2022/05/30 01:38:40;;;;;;;17.98;4.82;;;8.40;99.90;;;;;;5036297;28;20033;-71
2022/05/30 01:41:06;;;;;;;6.20;2.85;;;8.40;99.90;;;;;;5036184;28;20030;-71
2022/05/30 01:43:32;;;;;;;14.70;3.30;;;8.40;99.90;;;;;;5036649;28;20132;-71
2022/05/30 01:46:04;;;;;;;10.77;2.92;;;8.40;99.90;;;;;;5035791;28;20025;-70
2022/05/30 01:48:30;;;;;;;12.50;4.22;;;8.50;99.90;;;;;;5036278;28;20025;-71
2022/05/30 01:50:57;;;;;;;11.23;3.00;;;8.50;99.90;;;;;;5035783;28;20022;-71
2022/05/30 01:53:22;;;;;;;8.32;2.50;;;8.50;99.90;;;;;;5036104;28;20497;-71
2022/05/30 01:55:48;;;;;;;9.27;3.13;;;8.50;99.90;;;;;;5035960;28;20033;-71
2022/05/30 01:58:14;;;;;;;9.80;3.00;;;8.50;99.90;;;;;;5036006;28;20025;-71
2022/05/30 02:00:39;;;;;;;5.85;2.70;;;8.50;99.90;;;;;;5034849;28;20040;-71
2022/05/30 02:03:05;;;;;;;10.70;3.72;;;8.50;99.90;;;;;;5035695;28;20025;-71
2022/05/30 02:05:30;;;;;;;3.63;2.45;;;8.50;99.90;;;;;;5036093;28;20025;-71
2022/05/30 02:07:57;;;;;;;9.38;2.92;;;8.50;99.90;;;;;;5035381;28;20112;-70
2022/05/30 02:10:23;;;;;;;8.25;2.40;;;8.50;99.90;;;;;;5035792;28;20029;-71
2022/05/30 02:12:48;;;;;;;11.98;2.88;;;8.60;99.90;;;;;;5035431;28;20025;-70
2022/05/30 02:15:14;;;;;;;7.40;2.38;;;8.60;99.90;;;;;;5035336;28;20112;-71
2022/05/30 02:17:39;;;;;;;5.47;2.75;;;8.60;99.90;;;;;;5034716;28;20383;-71
2022/05/30 02:20:06;;;;;;;8.13;2.58;;;8.70;99.90;;;;;;5035511;28;20509;-71
2022/05/30 02:22:32;;;;;;;9.82;2.47;;;8.70;99.90;;;;;;5035275;28;20109;-71
2022/05/30 02:24:59;;;;;;;12.07;2.83;;;8.70;99.90;;;;;;5035055;28;20096;-71
2022/05/30 02:27:24;;;;;;;7.65;2.55;;;8.70;99.90;;;;;;5017515;28;20018;-71
2022/05/30 02:29:52;;;;;;;7.10;2.47;;;8.80;99.90;;;;;;5035445;28;20359;-71
2022/05/30 02:32:18;;;;;;;9.93;2.80;;;8.80;99.90;;;;;;5035378;28;20036;-71
2022/05/30 02:37:28;;;;;;;9.90;3.05;;;8.80;99.90;;;;;;5034968;28;20064;-71
2022/05/30 02:39:53;;;;;;;7.07;2.67;;;8.80;99.90;;;;;;5034871;28;20030;-71
2022/05/30 02:42:19;;;;;;;7.80;3.10;;;8.80;99.90;;;;;;5035324;28;20041;-71
2022/05/30 02:44:45;;;;;;;6.28;2.72;;;8.70;99.90;;;;;;5034731;28;20035;-71
2022/05/30 02:47:10;;;;;;;10.95;3.00;;;8.70;99.90;;;;;;5034788;28;20029;-71
2022/05/30 02:49:36;;;;;;;11.88;3.28;;;8.80;99.90;;;;;;5034695;28;20026;-71
2022/05/30 02:52:03;;;;;;;8.32;2.83;;;8.80;99.90;;;;;;5034968;28;20026;-71
2022/05/30 02:54:29;;;;;;;6.95;2.80;;;8.80;99.90;;;;;;5034543;28;20037;-71
2022/05/30 02:56:57;;;;;;;5.03;2.55;;;8.80;99.90;;;;;;5034600;28;20021;-71
2022/05/30 02:59:24;;;;;;;7.63;2.50;;;8.80;99.90;;;;;;5035132;28;20037;-71
2022/05/30 03:01:50;;;;;;;9.73;3.40;;;8.80;99.90;;;;;;5034421;28;20026;-71
2022/05/30 03:04:16;;;;;;;10.65;3.22;;;8.80;99.90;;;;;;5034565;28;20033;-71
2022/05/30 03:06:43;;;;;;;7.85;2.63;;;8.80;99.90;;;;;;5034754;28;20482;-71
2022/05/30 03:09:10;;;;;;;8.43;3.10;;;8.80;99.90;;;;;;5034980;28;20097;-71
2022/05/30 03:11:36;;;;;;;7.07;2.65;;;8.80;99.90;;;;;;5034657;28;20033;-71
2022/05/30 03:14:01;;;;;;;4.97;2.60;;;8.80;99.90;;;;;;5034210;28;20393;-71
2022/05/30 03:16:27;;;;;;;10.10;3.00;;;8.80;99.90;;;;;;5033904;28;20052;-71
2022/05/30 03:18:53;;;;;;;7.03;2.47;;;8.90;99.90;;;;;;5034357;28;20036;-71
2022/05/30 03:21:19;;;;;;;6.78;2.72;;;8.80;99.90;;;;;;5034239;28;20398;-71
2022/05/30 03:23:44;;;;;;;16.13;3.33;;;8.90;99.90;;;;;;5034097;28;20033;-71
2022/05/30 03:26:11;;;;;;;8.25;3.63;;;8.80;99.90;;;;;;5034222;28;20492;-71
2022/05/30 03:28:38;;;;;;;11.32;3.55;;;8.80;99.90;;;;;;5034371;28;20119;-71
2022/05/30 03:31:08;;;;;;;8.02;3.13;;;8.80;99.90;;;;;;5016274;28;20025;-71
2022/05/30 03:33:38;;;;;;;8.93;3.08;;;8.80;99.90;;;;;;5034268;28;20029;-71
2022/05/30 03:36:11;;;;;;;8.43;2.90;;;8.90;99.90;;;;;;5033882;28;20028;-71
2022/05/30 03:38:36;;;;;;;7.80;3.03;;;8.90;99.90;;;;;;5034204;28;20026;-71
2022/05/30 03:41:02;;;;;;;9.23;3.15;;;8.90;99.90;;;;;;5033899;28;20366;-71
2022/05/30 03:43:27;;;;;;;10.68;3.38;;;8.90;99.90;;;;;;5028295;28;20036;-70
2022/05/30 03:45:53;;;;;;;4.88;2.47;;;8.90;99.90;;;;;;5014028;28;20101;-71
2022/05/30 03:48:21;;;;;;;8.55;3.63;;;8.90;99.90;;;;;;5014329;28;20033;-71
2022/05/30 03:50:48;;;;;;;10.43;3.63;;;8.90;99.90;;;;;;5014037;28;20018;-71
2022/05/30 03:53:14;;;;;;;7.47;3.20;;;8.90;99.90;;;;;;5014325;28;20018;-71
2022/05/30 03:55:42;;;;;;;6.82;2.88;;;8.90;99.90;;;;;;5013921;28;20061;-71
2022/05/30 03:58:09;;;;;;;7.03;2.92;;;8.90;99.90;;;;;;5014242;28;20030;-71
2022/05/30 04:00:36;;;;;;;11.98;3.22;;;8.90;99.90;;;;;;5014237;28;20033;-71
2022/05/30 04:03:02;;;;;;;11.77;2.97;;;8.90;99.90;;;;;;5014094;28;20030;-71
2022/05/30 04:05:29;;;;;;;14.70;2.80;;;8.90;99.90;;;;;;5013846;28;20022;-70
2022/05/30 04:07:55;;;;;;;10.48;3.35;;;9.00;99.90;;;;;;5013987;28;20482;-71
2022/05/30 04:10:21;;;;;;;8.82;2.97;;;9.00;99.90;;;;;;5013953;28;20030;-71
2022/05/30 04:12:47;;;;;;;5.53;2.03;;;9.10;99.90;;;;;;5013974;28;20105;-71
2022/05/30 04:15:21;;;;;;;7.50;1.60;;;9.10;99.90;;;;;;5013678;28;20057;-71
2022/05/30 04:17:48;;;;;;;10.38;2.88;;;9.10;99.90;;;;;;5029503;28;20026;-70
2022/05/30 04:20:14;;;;;;;4.90;2.10;;;9.10;99.90;;;;;;5033636;28;20025;-70
2022/05/30 04:22:39;;;;;;;10.40;2.28;;;9.10;99.90;;;;;;5033879;28;20025;-70
2022/05/30 04:25:06;;;;;;;4.75;2.10;;;9.10;99.90;;;;;;5036594;28;20092;-70
2022/05/30 04:27:32;;;;;;;8.80;1.92;;;9.10;99.90;;;;;;5037379;28;20068;-70
2022/05/30 04:29:58;;;;;;;11.95;2.05;;;9.10;99.90;;;;;;5037470;28;20017;-71
2022/05/30 04:32:23;;;;;;;4.18;1.50;;;9.20;99.90;;;;;;5037849;28;20033;-71
2022/05/30 04:34:49;;;;;;;3.67;1.30;;;9.20;99.90;;;;;;5037132;28;20445;-71
2022/05/30 04:37:15;;;;;;;6.80;1.77;;;9.20;99.90;;;;;;5037279;28;20124;-71
2022/05/30 04:39:41;;;;;;;4.47;1.20;;;9.30;99.90;;;;;;5036978;28;20021;-70
2022/05/30 04:42:07;;;;;;;7.63;1.85;;;9.30;99.90;;;;;;5037037;28;20034;-70
2022/05/30 04:44:33;;;;;;;8.35;1.70;;;9.40;99.90;;;;;;5036741;28;20191;-70
2022/05/30 04:46:58;;;;;;;6.85;2.35;;;9.40;99.90;;;;;;5036945;28;20029;-70
2022/05/30 04:49:25;;;;;;;3.70;1.45;;;9.40;99.90;;;;;;5036980;28;20036;-70
2022/05/30 04:51:51;;;;;;;9.32;2.08;;;9.50;99.90;;;;;;5036580;28;20055;-71
2022/05/30 04:54:18;;;;;;;9.20;1.42;;;9.60;99.90;;;;;;5037135;28;20037;-71
2022/05/30 04:56:44;;;;;;;3.97;1.83;;;9.60;99.90;;;;;;5037009;28;20084;-70
2022/05/30 04:59:10;;;;;;;3.55;1.55;;;9.70;99.90;;;;;;5037147;28;20034;-70
2022/05/30 05:01:37;;;;;;;3.85;1.52;;;9.70;99.90;;;;;;5036783;28;20506;-70
2022/05/30 05:04:04;;;;;;;1.52;1.42;;;9.70;99.90;;;;;;5036567;28;20035;-71
2022/05/30 05:06:30;;;;;;;3.65;1.88;;;9.80;99.90;;;;;;5036820;28;20496;-70
2022/05/30 05:09:29;;;;;;;3.47;1.33;;;9.90;99.90;;;;;;5036619;28;20030;-70
2022/05/30 05:11:54;;;;;;;6.00;2.20;;;9.90;99.90;;;;;;4997323;28;20033;-71
2022/05/30 05:14:20;;;;;;;12.18;2.28;;;9.80;99.90;;;;;;5036502;28;20112;-71
2022/05/30 05:16:45;;;;;;;9.10;2.30;;;9.90;99.90;;;;;;5036563;28;20029;-71
2022/05/30 05:19:11;;;;;;;8.38;1.85;;;9.90;99.90;;;;;;5036675;28;20436;-70
2022/05/30 05:21:39;;;;;;;7.80;2.00;;;9.90;99.90;;;;;;5036253;28;20482;-70
2022/05/30 05:24:07;;;;;;;4.43;2.25;;;10.00;99.90;;;;;;5036474;28;20024;-70
2022/05/30 05:26:33;;;;;;;4.13;1.42;;;10.00;99.90;;;;;;5036272;28;20021;-70
2022/05/30 05:28:59;;;;;;;2.38;1.60;;;10.10;99.90;;;;;;5036184;28;20021;-70
2022/05/30 05:31:26;;;;;;;4.93;1.83;;;10.10;99.90;;;;;;5036199;28;20033;-70
2022/05/30 05:33:53;;;;;;;4.55;1.38;;;10.10;99.90;;;;;;5036527;28;20028;-70
2022/05/30 05:36:28;;;;;;;5.25;1.77;;;10.00;99.90;;;;;;5034909;28;20021;-70
2022/05/30 05:38:54;;;;;;;3.97;1.58;;;10.10;99.90;;;;;;5036406;28;20095;-71
2022/05/30 05:41:21;;;;;;;4.80;1.55;;;10.10;99.90;;;;;;5036162;28;20037;-71
2022/05/30 05:43:47;;;;;;;7.97;2.35;;;10.10;99.90;;;;;;5035951;28;20075;-71
2022/05/30 05:46:18;;;;;;;6.45;1.60;;;10.20;99.90;;;;;;5035761;28;20029;-71
2022/05/30 05:48:43;;;;;;;5.75;1.83;;;10.20;99.90;;;;;;5036160;28;20096;-71
2022/05/30 05:51:10;;;;;;;7.47;1.73;;;10.20;99.90;;;;;;5035772;28;20056;-70
2022/05/30 05:53:36;;;;;;;6.82;1.88;;;10.20;99.90;;;;;;5035637;28;20493;-70
2022/05/30 05:56:12;;;;;;;6.10;1.83;;;10.30;99.90;;;;;;5035667;28;20081;-71
2022/05/30 05:58:38;;;;;;;6.45;1.83;;;10.40;99.90;;;;;;5035668;28;20498;-71
2022/05/30 06:01:07;;;;;;;6.43;2.00;;;10.50;99.90;;;;;;5035640;28;20108;-71
2022/05/30 06:03:33;;;;;;;9.48;2.22;;;10.50;99.90;;;;;;5035383;28;20385;-70
2022/05/30 06:05:58;;;;;;;3.83;1.70;;;10.50;99.90;;;;;;5035933;28;20030;-71
2022/05/30 06:08:24;;;;;;;4.32;1.33;;;10.60;99.90;;;;;;5035563;28;20080;-71
2022/05/30 06:13:38;;;;;;;;;;;10.70;99.90;;;;;;5035931;28;20079;-70
2022/05/30 06:16:10;;;;;;;3.58;1.45;;;10.80;99.90;;;;;;5058559;22;20235;-66
2022/05/30 06:18:36;;;;;;;4.82;1.60;;;10.90;99.90;;;;;;5035106;28;20029;-66
2022/05/30 06:21:02;;;;;;;5.15;1.55;;;11.10;99.90;;;;;;5034955;28;20048;-67
2022/05/30 06:23:28;;;;;;;2.97;1.10;;;11.10;99.90;;;;;;5035164;28;20053;-66
2022/05/30 06:25:54;;;;;;;8.52;1.45;;;11.40;99.90;;;;;;5035073;28;20052;-66
2022/05/30 06:28:20;;;;;;;5.72;1.42;;;11.60;99.90;;;;;;5034679;28;20049;-66
2022/05/30 06:30:46;;;;;;;2.80;1.15;;;11.70;99.90;;;;;;5035319;28;20037;-66
2022/05/30 06:33:11;;;;;;;5.15;0.85;;;11.70;99.90;;;;;;5034758;28;20377;-66
2022/05/30 06:35:42;;;;;;;1.23;0.70;;;11.90;99.90;;;;;;5034638;28;20044;-67
2022/05/30 06:38:09;;;;;;;2.83;1.00;;;12.00;99.90;;;;;;5034641;28;20026;-66
2022/05/30 06:40:35;;;;;;;0.88;0.80;;;12.10;99.90;;;;;;5034890;28;20029;-66
2022/05/30 06:43:00;;;;;;;6.25;1.58;;;12.00;99.90;;;;;;5034498;28;20470;-66
2022/05/30 06:45:26;;;;;;;2.72;1.35;;;12.00;99.90;;;;;;5034798;28;20473;-66
2022/05/30 06:47:51;;;;;;;4.93;1.30;;;11.80;99.90;;;;;;5034052;28;20040;-66
2022/05/30 06:50:17;;;;;;;6.07;1.42;;;11.90;99.90;;;;;;5031966;28;20021;-66
2022/05/30 06:52:43;;;;;;;2.88;1.02;;;11.80;99.90;;;;;;5033090;28;20029;-66
2022/05/30 06:55:09;;;;;;;5.32;1.02;;;11.80;99.90;;;;;;5033430;28;20504;-66
2022/05/30 07:00:20;;;;;;;6.97;1.23;;;11.80;99.90;;;;;;5031474;28;20164;-66
2022/05/30 07:02:46;;;;;;;1.33;0.90;;;11.90;99.90;;;;;;5034017;28;20057;-66
2022/05/30 07:05:13;;;;;;;1.85;0.95;;;11.90;99.90;;;;;;5033355;28;20134;-66
2022/05/30 07:07:39;;;;;;;3.60;1.83;;;12.00;99.90;;;;;;5033447;28;20481;-66
2022/05/30 07:10:06;;;;;;;2.78;1.17;;;12.10;99.90;;;;;;5033134;28;20038;-66
2022/05/30 07:12:31;;;;;;;3.13;1.10;;;12.20;99.90;;;;;;5024753;28;20030;-66
2022/05/30 07:14:57;;;;;;;4.10;1.05;;;12.10;99.90;;;;;;5026503;28;20033;-66
2022/05/30 07:17:23;;;;;;;2.90;1.38;;;12.10;99.90;;;;;;5033621;28;20026;-66
2022/05/30 07:19:48;;;;;;;2.28;0.75;;;12.10;99.90;;;;;;5034088;28;20381;-66
2022/05/30 07:22:14;;;;;;;5.82;1.00;;;12.20;99.90;;;;;;5033777;28;20080;-66
2022/05/30 07:24:40;;;;;;;3.70;1.50;;;12.10;99.90;;;;;;5033696;28;20482;-66
2022/05/30 07:27:06;;;;;;;1.20;0.73;;;12.20;99.90;;;;;;5033740;28;20032;-66
2022/05/30 07:29:31;;;;;;;5.22;3.03;;;12.40;99.90;;;;;;5033649;28;20120;-66
2022/05/30 07:31:59;;;;;;;3.20;1.00;;;12.60;99.90;;;;;;5033473;28;20064;-66
2022/05/30 07:34:25;;;;;;;1.67;1.13;;;12.80;99.90;;;;;;5033988;28;20033;-67
2022/05/30 07:36:51;;;;;;;4.22;1.13;;;12.80;99.90;;;;;;5033423;28;20393;-66
2022/05/30 07:39:18;;;;;;;1.52;0.82;;;12.80;99.90;;;;;;5033724;28;20029;-68
2022/05/30 07:41:44;;;;;;;3.83;1.00;;;12.90;99.90;;;;;;5033468;28;20032;-67
2022/05/30 07:44:10;;;;;;;1.75;0.82;;;12.90;99.90;;;;;;5033542;28;20026;-66
2022/05/30 07:46:39;;;;;;;1.50;0.90;;;13.00;99.90;;;;;;5033298;28;20053;-67
2022/05/30 07:49:04;;;;;;;1.92;0.82;;;13.00;99.90;;;;;;5033592;28;20100;-67
2022/05/30 07:51:30;;;;;;;5.43;0.70;;;13.00;99.90;;;;;;5033667;28;20061;-67
2022/05/30 07:53:55;;;;;;;2.47;1.00;;;13.00;99.90;;;;;;5033609;28;20044;-67
2022/05/30 07:56:21;;;;;;;0.60;0.60;;;12.90;99.90;;;;;;5033381;28;20033;-67
2022/05/30 07:58:47;;;;;;;7.78;1.23;;;13.00;99.90;;;;;;5032576;28;20111;-67
2022/05/30 08:01:16;;;;;;;1.58;0.82;;;13.10;99.90;;;;;;5033362;28;20111;-66
2022/05/30 08:03:42;;;;;;;2.08;1.08;;;13.10;99.90;;;;;;5033485;28;20033;-66
2022/05/30 08:06:12;;;;;;;3.22;1.23;;;13.30;99.90;;;;;;5033192;28;20382;-67
2022/05/30 08:08:38;;;;;;;3.65;0.93;;;13.40;99.90;;;;;;5033626;28;20076;-67
2022/05/30 08:11:04;;;;;;;3.83;1.08;;;13.50;99.90;;;;;;5033152;28;20022;-67
2022/05/30 08:13:30;;;;;;;1.92;0.80;;;13.70;99.90;;;;;;5033227;28;20025;-67
2022/05/30 08:15:55;;;;;;;4.53;0.85;;;13.90;99.90;;;;;;5033189;28;20038;-66
2022/05/30 08:18:21;;;;;;;4.78;1.15;;;14.00;99.90;;;;;;5033685;28;20080;-66
2022/05/30 08:20:47;;;;;;;2.90;1.00;;;14.10;99.90;;;;;;5033453;28;20073;-66
2022/05/30 08:23:12;;;;;;;6.78;1.33;;;14.10;99.90;;;;;;5033621;28;20108;-66
2022/05/30 08:25:39;;;;;;;6.35;1.00;;;14.10;99.90;;;;;;5033092;28;20017;-65
2022/05/30 08:28:05;;;;;;;3.70;0.95;;;14.10;99.90;;;;;;5033108;28;20022;-66
2022/05/30 08:30:31;;;;;;;7.55;1.27;;;14.10;99.90;;;;;;5033664;28;20071;-67
2022/05/30 08:32:57;;;;;;;2.40;1.13;;;14.10;99.90;;;;;;5033333;28;20151;-67
2022/05/30 08:35:23;;;;;;;5.10;1.23;;;14.00;99.90;;;;;;5033027;28;20477;-67
2022/05/30 08:37:49;;;;;;;2.25;1.08;;;14.00;99.90;;;;;;5032887;28;20036;-67
2022/05/30 08:43:30;;;;;;;2.55;1.02;;;13.70;99.90;;;;;;5033329;28;20112;-67
2022/05/30 08:46:30;;;;;;;1.33;0.90;;;13.60;99.90;;;;;;5033093;28;20021;-67
2022/05/30 08:48:56;;;;;;;5.30;1.67;;;13.30;99.90;;;;;;5017434;28;20037;-67
2022/05/30 08:51:56;;;;;;;4.88;1.48;;;13.10;99.90;;;;;;5033123;28;20473;-67
2022/05/30 08:54:27;;;;;;;1.08;0.98;;;12.90;99.90;;;;;;5033200;28;20021;-67
2022/05/30 08:56:56;;;;;;;6.97;2.15;;;12.70;99.90;;;;;;5032770;28;20025;-68
2022/05/30 08:59:39;;;;;;;3.35;1.40;;;12.60;99.90;;;;;;5032923;28;20445;-68
2022/05/30 09:02:26;;;;;;;5.22;1.33;;;12.60;99.90;;;;;;5033178;28;20387;-67
2022/05/30 09:05:05;;;;;;;3.80;1.25;;;12.60;99.90;;;;;;5032622;28;20116;-67
2022/05/30 09:07:39;;;;;;;4.82;1.83;;;12.50;99.90;;;;;;5032874;28;20485;-67
2022/05/30 09:10:17;;;;;;;6.93;2.40;;;12.50;99.90;;;;;;5034576;28;20465;-67
2022/05/30 09:13:05;;;;;;;3.58;1.30;;;12.60;99.90;;;;;;5036617;28;20017;-67
2022/05/30 09:15:35;;;;;;;4.53;1.90;;;12.80;99.90;;;;;;5036528;28;20041;-67
2022/05/30 09:18:03;;;;;;;2.90;1.20;;;12.90;99.90;;;;;;5036427;28;20087;-67
2022/05/30 09:20:29;;;;;;;5.97;1.27;;;13.10;99.90;;;;;;5036126;28;20033;-67
2022/05/30 09:22:55;;;;;;;4.03;1.83;;;13.30;99.90;;;;;;5036222;28;20466;-67
2022/05/30 09:28:31;;;;;;;;;;;13.40;99.90;;;;;;5036955;28;20582;-67
2022/05/30 09:31:15;;;;;;;2.47;0.93;;;13.60;99.90;;;;;;5036092;28;20313;-67
2022/05/30 09:33:44;;;;;;;5.10;1.23;;;13.80;99.90;;;;;;5036141;28;20033;-67
2022/05/30 09:36:12;;;;;;;3.00;1.00;;;13.90;99.90;;;;;;5036050;28;20032;-67
2022/05/30 09:39:00;;;;;;;7.00;1.00;;;13.80;99.90;;;;;;5035784;28;20029;-67
2022/05/30 09:41:48;;;;;;;4.05;1.10;;;13.90;99.90;;;;;;5035840;28;20426;-67
2022/05/30 09:44:25;;;;;;;3.08;0.98;;;13.90;99.90;;;;;;5036095;28;20462;-67
2022/05/30 09:47:06;;;;;;;2.88;1.27;;;13.90;99.90;;;;;;5035873;28;20034;-67
2022/05/30 09:49:52;;;;;;;9.70;1.23;;;13.80;99.90;;;;;;5035919;28;20028;-67
2022/05/30 09:52:32;;;;;;;4.55;1.17;;;13.90;99.90;;;;;;5035894;28;20021;-67
2022/05/30 09:54:58;;;;;;;3.20;0.95;;;13.80;99.90;;;;;;5035690;28;20083;-67
2022/05/30 09:57:42;;;;;;;11.85;1.20;;;13.80;99.90;;;;;;5035702;28;20442;-67
2022/05/30 10:00:13;;;;;;;;;;;13.80;99.90;;;;;;5035824;28;20034;-68
2022/05/30 10:02:39;;;;;;;1.48;0.77;;;13.90;99.90;;;;;;5035404;28;19911;-67
2022/05/30 10:05:22;;;;;;;3.50;1.00;;;13.80;99.90;;;;;;5035216;28;20025;-67
2022/05/30 10:08:01;;;;;;;5.22;1.10;;;13.90;99.90;;;;;;5035364;28;20032;-67
2022/05/30 10:10:46;;;;;;;2.47;0.95;;;13.90;99.90;;;;;;5035658;28;20053;-67
2022/05/30 10:13:12;;;;;;;4.85;1.55;;;13.70;99.90;;;;;;5035508;28;20071;-67
2022/05/30 10:15:43;;;;;;;2.88;0.88;;;13.70;99.90;;;;;;5035205;28;20037;-67
2022/05/30 10:18:16;;;;;;;2.38;1.33;;;13.70;99.90;;;;;;5035410;28;20052;-68
2022/05/30 10:20:54;;;;;;;3.50;1.33;;;13.60;99.90;;;;;;5035035;28;20026;-68
2022/05/30 10:29:27;;;;;;;2.30;0.65;;;13.90;99.90;;;;;;5035061;28;20036;-67
2022/05/30 10:32:09;;;;;;;1.55;0.95;;;14.20;99.90;;;;;;5035070;28;20026;-67
2022/05/30 10:35:08;;;;;;;2.25;0.70;;;14.20;99.90;;;;;;5034750;28;20029;-67
2022/05/30 10:37:44;;;;;;;1.42;0.50;;;14.20;99.90;;;;;;5034924;28;20036;-67
2022/05/30 10:40:37;;;;;;;1.42;0.60;;;14.30;99.90;;;;;;5034947;28;20366;-67
2022/05/30 10:43:09;;;;;;;2.15;0.88;;;14.40;99.90;;;;;;5034790;28;20029;-67
2022/05/30 10:45:47;;;;;;;1.38;0.65;;;14.70;99.90;;;;;;5034780;28;20501;-67
2022/05/30 10:48:24;;;;;;;1.27;0.63;;;15.00;99.90;;;;;;5034843;28;20088;-67
2022/05/30 10:51:03;;;;;;;2.35;0.75;;;15.00;99.90;;;;;;5034797;28;20026;-67
2022/05/30 10:53:45;;;;;;;4.43;0.98;;;15.00;99.90;;;;;;5034315;28;20163;-67
2022/05/30 10:56:26;;;;;;;1.90;0.82;;;14.80;99.90;;;;;;5034557;28;20029;-67
2022/05/30 10:59:33;;;;;;;1.55;0.75;;;14.80;99.90;;;;;;5034296;28;20026;-67
2022/05/30 11:02:08;;;;;;;1.33;0.60;;;14.80;99.90;;;;;;5025435;28;20040;-67
2022/05/30 11:04:50;;;;;;;1.05;0.40;;;15.00;99.90;;;;;;5034369;28;20044;-67
2022/05/30 11:07:36;;;;;;;0.77;0.70;;;15.10;99.90;;;;;;5034204;28;20021;-67
2022/05/30 11:10:05;;;;;;;1.27;0.73;;;15.20;99.90;;;;;;5034317;28;20379;-66
2022/05/30 11:12:39;;;;;;;0.63;0.45;;;15.10;99.90;;;;;;5034027;28;20086;-66
2022/05/30 11:15:12;;;;;;;0.90;0.70;;;15.10;99.90;;;;;;5034023;28;20026;-66
2022/05/30 11:17:47;;;;;;;1.33;0.57;;;15.10;99.90;;;;;;5033710;28;20048;-66
2022/05/30 11:20:23;;;;;;;3.15;0.60;;;15.10;99.90;;;;;;5034257;28;20158;-66
2022/05/30 11:22:52;;;;;;;1.15;0.47;;;15.00;99.90;;;;;;5034170;28;20380;-67
2022/05/30 11:25:57;;;;;;;2.50;0.77;;;15.10;99.90;;;;;;5034037;28;20033;-67
2022/05/30 11:28:53;;;;;;;0.73;0.68;;;15.30;99.90;;;;;;5031734;28;20037;-67
2022/05/30 11:31:32;;;;;;;8.18;0.82;;;15.70;99.90;;;;;;5033781;28;20029;-67
2022/05/30 11:34:16;;;;;;;2.15;0.85;;;15.70;99.90;;;;;;5033690;28;20025;-67
2022/05/30 11:36:57;;;;;;;4.28;0.70;;;15.50;99.90;;;;;;5033820;28;20504;-67
2022/05/30 11:39:51;;;;;;;5.60;0.70;;;15.30;99.90;;;;;;5034185;28;20099;-67
2022/05/30 11:42:43;;;;;;;1.30;0.60;;;15.10;99.90;;;;;;5033942;28;20040;-67
2022/05/30 11:45:35;;;;;;;1.13;0.50;;;14.90;99.90;;;;;;5033405;28;20083;-67
2022/05/30 11:48:11;;;;;;;1.40;0.77;;;14.80;99.90;;;;;;5033565;28;20028;-67
2022/05/30 11:51:06;;;;;;;2.13;0.80;;;14.70;99.90;;;;;;5033735;28;20075;-67
2022/05/30 11:53:46;;;;;;;4.85;1.33;;;14.80;99.90;;;;;;5033824;28;20025;-67
2022/05/30 11:56:25;;;;;;;2.15;0.60;;;15.10;99.90;;;;;;5033828;28;20476;-67
2022/05/30 11:59:03;;;;;;;2.35;0.90;;;15.10;99.90;;;;;;5033572;28;20080;-67
2022/05/30 12:01:31;;;;;;;7.35;1.05;;;15.00;99.90;;;;;;5033785;28;20028;-67
2022/05/30 12:04:38;;;;;;;9.93;0.95;;;14.90;99.90;;;;;;5033281;28;20033;-67
2022/05/30 12:07:28;;;;;;;2.70;1.85;;;15.00;99.90;;;;;;5033417;28;20431;-67
2022/05/30 12:10:13;;;;;;;5.85;1.80;;;15.00;99.90;;;;;;5033596;28;20096;-67
2022/05/30 12:12:58;;;;;;;6.10;1.70;;;14.90;99.90;;;;;;5033111;28;20080;-67
2022/05/30 12:15:45;;;;;;;5.45;1.75;;;14.60;99.90;;;;;;5033149;28;20061;-66
2022/05/30 12:24:21;;;;;;;2.80;0.88;;;14.30;99.90;;;;;;5033360;28;20385;-66
2022/05/30 12:26:52;;;;;;;5.82;1.10;;;14.40;99.90;;;;;;5033236;28;20021;-66
2022/05/30 12:29:39;;;;;;;2.35;1.05;;;14.40;99.90;;;;;;5033431;28;20018;-67
2022/05/30 12:32:23;;;;;;;1.17;0.82;;;14.50;99.90;;;;;;5033382;28;20492;-67
2022/05/30 12:34:57;;;;;;;6.63;2.00;;;14.40;99.90;;;;;;5033278;28;20083;-67
2022/05/30 12:37:44;;;;;;;2.42;1.23;;;14.30;99.90;;;;;;5033158;28;20452;-67
2022/05/30 12:40:38;;;;;;;3.08;0.80;;;14.30;99.90;;;;;;5033244;28;20033;-67
2022/05/30 12:43:27;;;;;;;0.82;0.60;;;14.20;99.90;;;;;;5028895;28;20092;-67
2022/05/30 12:45:55;;;;;;;1.52;1.20;;;14.00;99.90;;;;;;5036005;28;20025;-66
2022/05/30 12:48:36;;;;;;;1.70;1.13;;;13.90;99.90;;;;;;5037135;28;20026;-66
2022/05/30 12:51:16;;;;;;;3.58;0.90;;;13.80;99.90;;;;;;5037234;28;20064;-67
2022/05/30 12:54:02;;;;;;;1.85;0.60;;;13.80;99.90;;;;;;5036956;28;20033;-67
2022/05/30 12:56:39;;;;;;;2.85;0.90;;;13.80;99.90;;;;;;5029317;28;20041;-66
2022/05/30 12:59:11;;;;;;;2.05;0.93;;;13.80;99.90;;;;;;5036790;28;20028;-66
2022/05/30 13:01:43;;;;;;;7.63;0.93;;;13.90;99.90;;;;;;5036957;28;20030;-66
2022/05/30 13:04:26;;;;;;;8.57;2.65;;;13.90;99.90;;;;;;5036266;28;20021;-67
2022/05/30 13:06:57;;;;;;;7.65;2.05;;;13.90;99.90;;;;;;5036596;28;20026;-67
2022/05/30 13:09:33;;;;;;;4.80;2.15;;;13.90;99.90;;;;;;5036359;28;20029;-67
2022/05/30 13:12:03;;;;;;;3.55;0.90;;;13.80;99.90;;;;;;5036428;28;20541;-67
2022/05/30 13:15:02;;;;;;;2.03;0.70;;;13.80;99.90;;;;;;5036568;28;20034;-67
2022/05/30 13:17:47;;;;;;;2.15;0.90;;;13.70;99.90;;;;;;5036173;28;20037;-67
2022/05/30 13:20:19;;;;;;;14.77;1.20;;;13.50;99.90;;;;;;5036622;28;20029;-67
2022/05/30 13:22:51;;;;;;;6.97;3.20;;;13.40;99.90;;;;;;5036156;28;20056;-67
2022/05/30 13:25:42;;;;;;;12.77;5.30;;;13.40;99.90;;;;;;5036850;28;20071;-66
2022/05/30 13:28:19;;;;;;;5.10;1.60;;;13.30;99.90;;;;;;5036057;28;20026;-66
2022/05/30 13:30:45;;;;;;;4.78;1.45;;;13.40;99.90;;;;;;5036337;28;20044;-68
2022/05/30 13:33:22;;;;;;;2.60;1.23;;;13.40;99.90;;;;;;5035918;28;20513;-67
2022/05/30 13:35:52;;;;;;;2.35;1.10;;;13.40;99.90;;;;;;5035924;28;20100;-66
2022/05/30 13:38:27;;;;;;;1.70;1.08;;;13.40;99.90;;;;;;5036099;28;20021;-66
2022/05/30 13:40:52;;;;;;;3.92;1.00;;;13.50;99.90;;;;;;5035813;28;20021;-67